sensor_id;sensor_type;location;lat;lon;timestamp;temperature;humidity
20066;DHT22;10193;48.884;9.182;2022-09-09T00:00:19;18.50;59.00
20066;DHT22;10193;48.884;9.182;2022-09-09T00:02:55;18.50;59.00
20066;DHT22;10193;48.884;9.182;2022-09-09T00:05:29;18.50;59.20
20066;DHT22;10193;48.884;9.182;2022-09-09T00:07:59;18.60;59.30
20066;DHT22;10193;48.884;9.182;2022-09-09T00:10:32;18.50;59.20
20066;DHT22;10193;48.884;9.182;2022-09-09T00:13:05;18.60;59.30
20066;DHT22;10193;48.884;9.182;2022-09-09T00:15:40;18.60;59.30
20066;DHT22;10193;48.884;9.182;2022-09-09T00:18:17;18.60;59.30
20066;DHT22;10193;48.884;9.182;2022-09-09T00:20:52;18.60;59.30
20066;DHT22;10193;48.884;9.182;2022-09-09T00:23:25;18.60;59.30
20066;DHT22;10193;48.884;9.182;2022-09-09T00:26:00;18.60;59.20
20066;DHT22;10193;48.884;9.182;2022-09-09T00:28:28;18.60;59.20
20066;DHT22;10193;48.884;9.182;2022-09-09T00:31:00;18.70;59.20
20066;DHT22;10193;48.884;9.182;2022-09-09T00:33:30;18.70;59.20
20066;DHT22;10193;48.884;9.182;2022-09-09T00:35:58;18.70;59.20
20066;DHT22;10193;48.884;9.182;2022-09-09T00:38:33;18.70;59.20
20066;DHT22;10193;48.884;9.182;2022-09-09T00:41:05;18.70;59.20
20066;DHT22;10193;48.884;9.182;2022-09-09T00:43:36;18.70;59.20
20066;DHT22;10193;48.884;9.182;2022-09-09T00:46:20;18.70;59.20
20066;DHT22;10193;48.884;9.182;2022-09-09T00:48:57;18.70;59.20
20066;DHT22;10193;48.884;9.182;2022-09-09T00:51:35;18.70;59.20
20066;DHT22;10193;48.884;9.182;2022-09-09T00:54:28;18.70;59.20
20066;DHT22;10193;48.884;9.182;2022-09-09T00:57:07;18.70;59.20
20066;DHT22;10193;48.884;9.182;2022-09-09T00:59:46;18.70;59.20
20066;DHT22;10193;48.884;9.182;2022-09-09T01:02:19;18.70;59.20
20066;DHT22;10193;48.884;9.182;2022-09-09T01:04:50;18.80;59.20
20066;DHT22;10193;48.884;9.182;2022-09-09T01:07:18;18.80;59.10
20066;DHT22;10193;48.884;9.182;2022-09-09T01:09:51;18.80;59.20
20066;DHT22;10193;48.884;9.182;2022-09-09T01:12:25;18.80;59.20
20066;DHT22;10193;48.884;9.182;2022-09-09T01:14:58;18.80;59.10
20066;DHT22;10193;48.884;9.182;2022-09-09T01:17:31;18.80;59.10
20066;DHT22;10193;48.884;9.182;2022-09-09T01:20:06;18.80;59.00
20066;DHT22;10193;48.884;9.182;2022-09-09T01:22:38;18.80;59.60
20066;DHT22;10193;48.884;9.182;2022-09-09T01:25:20;18.90;59.10
20066;DHT22;10193;48.884;9.182;2022-09-09T01:27:52;18.90;59.00
20066;DHT22;10193;48.884;9.182;2022-09-09T01:30:20;18.90;59.00
20066;DHT22;10193;48.884;9.182;2022-09-09T01:32:50;18.90;59.00
20066;DHT22;10193;48.884;9.182;2022-09-09T01:35:31;18.90;59.00
20066;DHT22;10193;48.884;9.182;2022-09-09T01:37:58;18.90;59.00
20066;DHT22;10193;48.884;9.182;2022-09-09T01:40:26;19.00;59.00
20066;DHT22;10193;48.884;9.182;2022-09-09T01:42:54;19.00;59.00
20066;DHT22;10193;48.884;9.182;2022-09-09T01:45:22;19.00;58.90
20066;DHT22;10193;48.884;9.182;2022-09-09T01:47:51;19.00;59.00
20066;DHT22;10193;48.884;9.182;2022-09-09T01:50:19;19.00;58.90
20066;DHT22;10193;48.884;9.182;2022-09-09T01:52:48;19.00;58.80
20066;DHT22;10193;48.884;9.182;2022-09-09T01:55:16;19.00;58.80
20066;DHT22;10193;48.884;9.182;2022-09-09T01:57:53;19.10;58.80
20066;DHT22;10193;48.884;9.182;2022-09-09T02:00:24;19.00;58.70
20066;DHT22;10193;48.884;9.182;2022-09-09T02:03:00;19.00;59.30
20066;DHT22;10193;48.884;9.182;2022-09-09T02:05:36;19.00;58.70
20066;DHT22;10193;48.884;9.182;2022-09-09T02:08:07;19.00;58.70
20066;DHT22;10193;48.884;9.182;2022-09-09T02:10:40;19.00;58.70
20066;DHT22;10193;48.884;9.182;2022-09-09T02:13:11;19.00;58.60
20066;DHT22;10193;48.884;9.182;2022-09-09T02:15:47;19.00;58.60
20066;DHT22;10193;48.884;9.182;2022-09-09T02:18:18;19.00;58.50
20066;DHT22;10193;48.884;9.182;2022-09-09T02:20:48;19.10;58.70
20066;DHT22;10193;48.884;9.182;2022-09-09T02:23:15;19.10;58.60
20066;DHT22;10193;48.884;9.182;2022-09-09T02:25:43;19.10;58.60
20066;DHT22;10193;48.884;9.182;2022-09-09T02:28:14;19.00;58.40
20066;DHT22;10193;48.884;9.182;2022-09-09T02:30:44;19.00;58.30
20066;DHT22;10193;48.884;9.182;2022-09-09T02:33:13;19.00;58.30
20066;DHT22;10193;48.884;9.182;2022-09-09T02:35:42;19.00;58.20
20066;DHT22;10193;48.884;9.182;2022-09-09T02:38:13;18.90;58.10
20066;DHT22;10193;48.884;9.182;2022-09-09T02:40:41;18.90;58.20
20066;DHT22;10193;48.884;9.182;2022-09-09T02:43:08;18.90;58.20
20066;DHT22;10193;48.884;9.182;2022-09-09T02:45:41;18.80;58.20
20066;DHT22;10193;48.884;9.182;2022-09-09T02:48:14;18.80;58.30
20066;DHT22;10193;48.884;9.182;2022-09-09T02:50:52;18.70;58.30
20066;DHT22;10193;48.884;9.182;2022-09-09T02:53:24;18.70;58.40
20066;DHT22;10193;48.884;9.182;2022-09-09T02:55:58;18.70;58.40
20066;DHT22;10193;48.884;9.182;2022-09-09T02:58:27;18.60;58.40
20066;DHT22;10193;48.884;9.182;2022-09-09T03:00:55;18.60;58.40
20066;DHT22;10193;48.884;9.182;2022-09-09T03:03:24;18.60;58.50
20066;DHT22;10193;48.884;9.182;2022-09-09T03:05:51;18.50;58.50
20066;DHT22;10193;48.884;9.182;2022-09-09T03:08:18;18.50;58.50
20066;DHT22;10193;48.884;9.182;2022-09-09T03:10:45;18.50;58.60
20066;DHT22;10193;48.884;9.182;2022-09-09T03:13:12;18.50;58.70
20066;DHT22;10193;48.884;9.182;2022-09-09T03:15:41;18.40;58.70
20066;DHT22;10193;48.884;9.182;2022-09-09T03:18:08;18.40;58.70
20066;DHT22;10193;48.884;9.182;2022-09-09T03:20:36;18.40;58.80
20066;DHT22;10193;48.884;9.182;2022-09-09T03:23:03;18.40;58.90
20066;DHT22;10193;48.884;9.182;2022-09-09T03:25:30;18.30;58.90
20066;DHT22;10193;48.884;9.182;2022-09-09T03:27:57;18.30;58.90
20066;DHT22;10193;48.884;9.182;2022-09-09T03:30:26;18.30;58.80
20066;DHT22;10193;48.884;9.182;2022-09-09T03:32:53;18.30;58.90
20066;DHT22;10193;48.884;9.182;2022-09-09T03:35:21;18.20;58.80
20066;DHT22;10193;48.884;9.182;2022-09-09T03:37:49;18.20;58.80
20066;DHT22;10193;48.884;9.182;2022-09-09T03:40:16;18.20;58.80
20066;DHT22;10193;48.884;9.182;2022-09-09T03:42:43;18.10;58.80
20066;DHT22;10193;48.884;9.182;2022-09-09T03:45:10;18.10;58.90
20066;DHT22;10193;48.884;9.182;2022-09-09T03:47:37;18.10;59.00
20066;DHT22;10193;48.884;9.182;2022-09-09T03:50:05;18.00;59.00
20066;DHT22;10193;48.884;9.182;2022-09-09T03:52:35;18.00;59.20
20066;DHT22;10193;48.884;9.182;2022-09-09T03:55:04;18.00;59.30
20066;DHT22;10193;48.884;9.182;2022-09-09T03:57:31;18.00;59.50
20066;DHT22;10193;48.884;9.182;2022-09-09T04:00:01;18.00;59.60
20066;DHT22;10193;48.884;9.182;2022-09-09T04:02:28;18.00;59.60
20066;DHT22;10193;48.884;9.182;2022-09-09T04:04:54;18.00;59.70
20066;DHT22;10193;48.884;9.182;2022-09-09T04:07:21;18.00;59.80
20066;DHT22;10193;48.884;9.182;2022-09-09T04:09:48;18.00;59.80
20066;DHT22;10193;48.884;9.182;2022-09-09T04:12:17;18.00;59.80
20066;DHT22;10193;48.884;9.182;2022-09-09T04:14:43;18.00;59.80
20066;DHT22;10193;48.884;9.182;2022-09-09T04:17:10;18.00;59.80
20066;DHT22;10193;48.884;9.182;2022-09-09T04:19:37;18.00;59.70
20066;DHT22;10193;48.884;9.182;2022-09-09T04:22:04;18.00;59.70
20066;DHT22;10193;48.884;9.182;2022-09-09T04:24:31;18.10;59.80
20066;DHT22;10193;48.884;9.182;2022-09-09T04:26:58;18.00;59.70
20066;DHT22;10193;48.884;9.182;2022-09-09T04:29:26;18.10;59.80
20066;DHT22;10193;48.884;9.182;2022-09-09T04:31:53;18.00;59.70
20066;DHT22;10193;48.884;9.182;2022-09-09T04:34:20;18.10;59.90
20066;DHT22;10193;48.884;9.182;2022-09-09T04:36:46;18.10;60.00
20066;DHT22;10193;48.884;9.182;2022-09-09T04:39:13;18.10;60.00
20066;DHT22;10193;48.884;9.182;2022-09-09T04:41:40;18.10;60.00
20066;DHT22;10193;48.884;9.182;2022-09-09T04:44:07;18.10;60.00
20066;DHT22;10193;48.884;9.182;2022-09-09T04:46:36;18.10;60.10
20066;DHT22;10193;48.884;9.182;2022-09-09T04:49:03;18.10;60.10
20066;DHT22;10193;48.884;9.182;2022-09-09T04:51:30;18.20;60.30
20066;DHT22;10193;48.884;9.182;2022-09-09T04:53:57;18.20;60.30
20066;DHT22;10193;48.884;9.182;2022-09-09T04:56:24;18.20;60.30
20066;DHT22;10193;48.884;9.182;2022-09-09T04:58:52;18.20;60.30
20066;DHT22;10193;48.884;9.182;2022-09-09T05:01:21;18.20;60.30
20066;DHT22;10193;48.884;9.182;2022-09-09T05:03:50;18.20;60.20
20066;DHT22;10193;48.884;9.182;2022-09-09T05:06:20;18.20;60.30
20066;DHT22;10193;48.884;9.182;2022-09-09T05:08:48;18.20;60.30
20066;DHT22;10193;48.884;9.182;2022-09-09T05:11:19;18.30;60.30
20066;DHT22;10193;48.884;9.182;2022-09-09T05:13:48;18.20;60.10
20066;DHT22;10193;48.884;9.182;2022-09-09T05:16:17;18.30;60.30
20066;DHT22;10193;48.884;9.182;2022-09-09T05:18:44;18.30;60.30
20066;DHT22;10193;48.884;9.182;2022-09-09T05:21:14;18.30;60.40
20066;DHT22;10193;48.884;9.182;2022-09-09T05:23:41;18.30;60.50
20066;DHT22;10193;48.884;9.182;2022-09-09T05:26:12;18.30;61.30
20066;DHT22;10193;48.884;9.182;2022-09-09T05:28:39;18.30;60.60
20066;DHT22;10193;48.884;9.182;2022-09-09T05:31:08;18.40;60.70
20066;DHT22;10193;48.884;9.182;2022-09-09T05:33:37;18.40;60.80
20066;DHT22;10193;48.884;9.182;2022-09-09T05:36:07;18.40;60.80
20066;DHT22;10193;48.884;9.182;2022-09-09T05:38:37;18.50;61.00
20066;DHT22;10193;48.884;9.182;2022-09-09T05:41:05;18.50;61.00
20066;DHT22;10193;48.884;9.182;2022-09-09T05:43:32;18.60;61.10
20066;DHT22;10193;48.884;9.182;2022-09-09T05:46:02;18.60;61.20
20066;DHT22;10193;48.884;9.182;2022-09-09T05:48:31;18.60;61.20
20066;DHT22;10193;48.884;9.182;2022-09-09T05:50:59;18.70;61.30
20066;DHT22;10193;48.884;9.182;2022-09-09T05:53:26;18.80;61.50
20066;DHT22;10193;48.884;9.182;2022-09-09T05:56:00;18.80;61.50
20066;DHT22;10193;48.884;9.182;2022-09-09T05:58:29;18.80;61.60
20066;DHT22;10193;48.884;9.182;2022-09-09T06:01:01;18.90;61.70
20066;DHT22;10193;48.884;9.182;2022-09-09T06:03:28;19.00;61.70
20066;DHT22;10193;48.884;9.182;2022-09-09T06:05:59;19.10;61.70
20066;DHT22;10193;48.884;9.182;2022-09-09T06:08:26;19.10;61.60
20066;DHT22;10193;48.884;9.182;2022-09-09T06:10:53;19.20;61.80
20066;DHT22;10193;48.884;9.182;2022-09-09T06:13:22;19.30;62.20
20066;DHT22;10193;48.884;9.182;2022-09-09T06:15:50;19.50;62.20
20066;DHT22;10193;48.884;9.182;2022-09-09T06:18:17;19.60;61.90
20066;DHT22;10193;48.884;9.182;2022-09-09T06:20:53;19.70;61.80
20066;DHT22;10193;48.884;9.182;2022-09-09T06:23:20;19.70;61.60
20066;DHT22;10193;48.884;9.182;2022-09-09T06:25:47;19.80;61.40
20066;DHT22;10193;48.884;9.182;2022-09-09T06:28:14;19.90;61.40
20066;DHT22;10193;48.884;9.182;2022-09-09T06:30:43;19.90;61.40
20066;DHT22;10193;48.884;9.182;2022-09-09T06:33:10;20.00;61.30
20066;DHT22;10193;48.884;9.182;2022-09-09T06:35:37;20.00;61.20
20066;DHT22;10193;48.884;9.182;2022-09-09T06:38:03;20.10;61.10
20066;DHT22;10193;48.884;9.182;2022-09-09T06:40:31;20.10;61.00
20066;DHT22;10193;48.884;9.182;2022-09-09T06:42:59;20.10;60.90
20066;DHT22;10193;48.884;9.182;2022-09-09T06:45:27;20.10;60.80
20066;DHT22;10193;48.884;9.182;2022-09-09T06:47:56;20.10;60.90
20066;DHT22;10193;48.884;9.182;2022-09-09T06:50:23;20.10;60.90
20066;DHT22;10193;48.884;9.182;2022-09-09T06:52:50;20.10;60.90
20066;DHT22;10193;48.884;9.182;2022-09-09T06:55:17;20.20;61.20
20066;DHT22;10193;48.884;9.182;2022-09-09T06:57:45;20.20;61.40
20066;DHT22;10193;48.884;9.182;2022-09-09T07:00:12;20.20;61.60
20066;DHT22;10193;48.884;9.182;2022-09-09T07:02:40;20.20;62.40
20066;DHT22;10193;48.884;9.182;2022-09-09T07:05:09;20.30;61.60
20066;DHT22;10193;48.884;9.182;2022-09-09T07:07:36;20.40;61.50
20066;DHT22;10193;48.884;9.182;2022-09-09T07:10:04;20.50;61.60
20066;DHT22;10193;48.884;9.182;2022-09-09T07:12:30;20.50;61.50
20066;DHT22;10193;48.884;9.182;2022-09-09T07:14:57;20.60;61.30
20066;DHT22;10193;48.884;9.182;2022-09-09T07:17:24;20.60;61.00
20066;DHT22;10193;48.884;9.182;2022-09-09T07:19:51;20.70;61.20
20066;DHT22;10193;48.884;9.182;2022-09-09T07:22:19;20.70;61.00
20066;DHT22;10193;48.884;9.182;2022-09-09T07:24:46;20.80;61.10
20066;DHT22;10193;48.884;9.182;2022-09-09T07:27:15;20.90;61.10
20066;DHT22;10193;48.884;9.182;2022-09-09T07:29:41;20.90;60.90
20066;DHT22;10193;48.884;9.182;2022-09-09T07:32:08;20.90;60.70
20066;DHT22;10193;48.884;9.182;2022-09-09T07:34:35;21.00;60.70
20066;DHT22;10193;48.884;9.182;2022-09-09T07:37:02;21.10;60.70
20066;DHT22;10193;48.884;9.182;2022-09-09T07:39:30;21.20;60.60
20066;DHT22;10193;48.884;9.182;2022-09-09T07:41:57;21.20;60.40
20066;DHT22;10193;48.884;9.182;2022-09-09T07:44:24;21.30;60.40
20066;DHT22;10193;48.884;9.182;2022-09-09T07:46:52;21.30;60.20
20066;DHT22;10193;48.884;9.182;2022-09-09T07:49:19;21.30;60.10
20066;DHT22;10193;48.884;9.182;2022-09-09T07:51:47;21.40;60.00
20066;DHT22;10193;48.884;9.182;2022-09-09T07:54:17;21.40;60.20
20066;DHT22;10193;48.884;9.182;2022-09-09T07:56:47;21.40;60.30
20066;DHT22;10193;48.884;9.182;2022-09-09T07:59:15;21.50;60.40
20066;DHT22;10193;48.884;9.182;2022-09-09T08:01:43;21.50;60.30
20066;DHT22;10193;48.884;9.182;2022-09-09T08:04:12;21.60;60.50
20066;DHT22;10193;48.884;9.182;2022-09-09T08:06:42;21.70;60.60
20066;DHT22;10193;48.884;9.182;2022-09-09T08:09:10;21.70;60.60
20066;DHT22;10193;48.884;9.182;2022-09-09T08:11:37;21.80;60.50
20066;DHT22;10193;48.884;9.182;2022-09-09T08:14:07;21.80;60.00
20066;DHT22;10193;48.884;9.182;2022-09-09T08:16:36;21.90;59.80
20066;DHT22;10193;48.884;9.182;2022-09-09T08:19:04;21.90;59.80
20066;DHT22;10193;48.884;9.182;2022-09-09T08:21:33;22.00;59.70
20066;DHT22;10193;48.884;9.182;2022-09-09T08:24:02;22.00;59.40
20066;DHT22;10193;48.884;9.182;2022-09-09T08:26:31;22.10;59.30
20066;DHT22;10193;48.884;9.182;2022-09-09T08:29:00;22.10;59.30
20066;DHT22;10193;48.884;9.182;2022-09-09T08:31:31;22.20;59.30
20066;DHT22;10193;48.884;9.182;2022-09-09T08:34:00;22.20;59.20
20066;DHT22;10193;48.884;9.182;2022-09-09T08:36:28;22.30;59.20
20066;DHT22;10193;48.884;9.182;2022-09-09T08:38:56;22.40;59.30
20066;DHT22;10193;48.884;9.182;2022-09-09T08:41:43;22.40;59.00
20066;DHT22;10193;48.884;9.182;2022-09-09T08:44:23;22.50;58.50
20066;DHT22;10193;48.884;9.182;2022-09-09T08:47:01;22.50;58.60
20066;DHT22;10193;48.884;9.182;2022-09-09T08:49:46;22.60;59.30
20066;DHT22;10193;48.884;9.182;2022-09-09T08:52:19;22.60;58.40
20066;DHT22;10193;48.884;9.182;2022-09-09T08:54:47;22.70;58.70
20066;DHT22;10193;48.884;9.182;2022-09-09T08:57:19;22.80;58.70
20066;DHT22;10193;48.884;9.182;2022-09-09T08:59:47;22.80;58.50
20066;DHT22;10193;48.884;9.182;2022-09-09T09:02:21;22.90;58.60
20066;DHT22;10193;48.884;9.182;2022-09-09T09:04:58;23.00;58.40
20066;DHT22;10193;48.884;9.182;2022-09-09T09:07:39;23.00;58.30
20066;DHT22;10193;48.884;9.182;2022-09-09T09:10:16;23.10;58.10
20066;DHT22;10193;48.884;9.182;2022-09-09T09:12:46;23.20;58.30
20066;DHT22;10193;48.884;9.182;2022-09-09T09:15:18;23.30;58.30
20066;DHT22;10193;48.884;9.182;2022-09-09T09:17:48;23.40;58.00
20066;DHT22;10193;48.884;9.182;2022-09-09T09:20:18;23.50;57.90
20066;DHT22;10193;48.884;9.182;2022-09-09T09:22:49;23.60;57.30
20066;DHT22;10193;48.884;9.182;2022-09-09T09:25:19;23.70;57.00
20066;DHT22;10193;48.884;9.182;2022-09-09T09:27:51;23.70;56.40
20066;DHT22;10193;48.884;9.182;2022-09-09T09:30:21;23.80;56.00
20066;DHT22;10193;48.884;9.182;2022-09-09T09:32:53;23.80;55.90
20066;DHT22;10193;48.884;9.182;2022-09-09T09:35:21;23.80;55.50
20066;DHT22;10193;48.884;9.182;2022-09-09T09:37:49;23.70;55.50
20066;DHT22;10193;48.884;9.182;2022-09-09T09:40:18;23.70;55.40
20066;DHT22;10193;48.884;9.182;2022-09-09T09:42:51;23.70;55.40
20066;DHT22;10193;48.884;9.182;2022-09-09T09:45:28;23.70;55.20
20066;DHT22;10193;48.884;9.182;2022-09-09T09:48:03;23.70;55.30
20066;DHT22;10193;48.884;9.182;2022-09-09T09:50:30;23.70;55.60
20066;DHT22;10193;48.884;9.182;2022-09-09T09:52:59;23.80;56.00
20066;DHT22;10193;48.884;9.182;2022-09-09T09:55:28;23.90;56.20
20066;DHT22;10193;48.884;9.182;2022-09-09T09:58:02;23.90;56.10
20066;DHT22;10193;48.884;9.182;2022-09-09T10:00:29;24.00;56.00
20066;DHT22;10193;48.884;9.182;2022-09-09T10:02:55;24.10;56.10
20066;DHT22;10193;48.884;9.182;2022-09-09T10:05:25;24.20;56.00
20066;DHT22;10193;48.884;9.182;2022-09-09T10:08:03;24.30;55.80
20066;DHT22;10193;48.884;9.182;2022-09-09T10:10:41;24.30;55.10
20066;DHT22;10193;48.884;9.182;2022-09-09T10:13:14;24.40;55.20
20066;DHT22;10193;48.884;9.182;2022-09-09T10:15:48;24.50;55.20
20066;DHT22;10193;48.884;9.182;2022-09-09T10:18:30;24.60;55.00
20066;DHT22;10193;48.884;9.182;2022-09-09T10:21:12;24.70;54.70
20066;DHT22;10193;48.884;9.182;2022-09-09T10:24:11;24.70;54.50
20066;DHT22;10193;48.884;9.182;2022-09-09T10:26:44;24.80;54.40
20066;DHT22;10193;48.884;9.182;2022-09-09T10:29:28;24.90;54.50
20066;DHT22;10193;48.884;9.182;2022-09-09T10:32:06;25.00;53.90
20066;DHT22;10193;48.884;9.182;2022-09-09T10:35:03;25.00;53.60
20066;DHT22;10193;48.884;9.182;2022-09-09T10:37:41;25.00;53.20
20066;DHT22;10193;48.884;9.182;2022-09-09T10:40:21;25.10;53.30
20066;DHT22;10193;48.884;9.182;2022-09-09T10:42:53;25.10;53.30
20066;DHT22;10193;48.884;9.182;2022-09-09T10:45:25;25.20;53.60
20066;DHT22;10193;48.884;9.182;2022-09-09T10:48:13;25.30;53.00
20066;DHT22;10193;48.884;9.182;2022-09-09T10:50:51;25.30;51.40
20066;DHT22;10193;48.884;9.182;2022-09-09T10:53:27;25.20;51.30
20066;DHT22;10193;48.884;9.182;2022-09-09T10:56:00;25.20;51.30
20066;DHT22;10193;48.884;9.182;2022-09-09T10:58:31;25.10;51.10
20066;DHT22;10193;48.884;9.182;2022-09-09T11:01:03;25.00;51.00
20066;DHT22;10193;48.884;9.182;2022-09-09T11:03:35;25.00;51.00
20066;DHT22;10193;48.884;9.182;2022-09-09T11:06:07;24.90;51.10
20066;DHT22;10193;48.884;9.182;2022-09-09T11:08:39;24.80;50.90
20066;DHT22;10193;48.884;9.182;2022-09-09T11:11:11;24.60;50.60
20066;DHT22;10193;48.884;9.182;2022-09-09T11:13:42;24.50;50.30
20066;DHT22;10193;48.884;9.182;2022-09-09T11:16:19;24.30;50.10
20066;DHT22;10193;48.884;9.182;2022-09-09T11:18:47;24.10;49.90
20066;DHT22;10193;48.884;9.182;2022-09-09T11:21:18;23.80;49.80
20066;DHT22;10193;48.884;9.182;2022-09-09T11:23:52;23.60;50.60
20066;DHT22;10193;48.884;9.182;2022-09-09T11:26:28;23.30;51.10
20066;DHT22;10193;48.884;9.182;2022-09-09T11:29:17;23.10;51.50
20066;DHT22;10193;48.884;9.182;2022-09-09T11:32:00;22.90;51.70
20066;DHT22;10193;48.884;9.182;2022-09-09T11:34:43;22.60;52.10
20066;DHT22;10193;48.884;9.182;2022-09-09T11:37:31;22.40;52.50
20066;DHT22;10193;48.884;9.182;2022-09-09T11:40:20;22.20;53.10
20066;DHT22;10193;48.884;9.182;2022-09-09T11:42:48;22.10;53.50
20066;DHT22;10193;48.884;9.182;2022-09-09T11:45:25;22.00;53.70
20066;DHT22;10193;48.884;9.182;2022-09-09T11:47:55;21.90;54.00
20066;DHT22;10193;48.884;9.182;2022-09-09T11:50:31;21.90;54.20
20066;DHT22;10193;48.884;9.182;2022-09-09T11:53:16;21.80;54.70
20066;DHT22;10193;48.884;9.182;2022-09-09T11:55:47;21.80;54.90
20066;DHT22;10193;48.884;9.182;2022-09-09T11:58:17;21.90;55.00
20066;DHT22;10193;48.884;9.182;2022-09-09T12:00:47;21.90;55.00
20066;DHT22;10193;48.884;9.182;2022-09-09T12:03:34;22.00;55.30
20066;DHT22;10193;48.884;9.182;2022-09-09T12:06:10;22.00;55.40
20066;DHT22;10193;48.884;9.182;2022-09-09T12:08:42;22.10;55.50
20066;DHT22;10193;48.884;9.182;2022-09-09T12:11:12;22.20;55.90
20066;DHT22;10193;48.884;9.182;2022-09-09T12:13:53;22.30;56.10
20066;DHT22;10193;48.884;9.182;2022-09-09T12:16:32;22.50;55.90
20066;DHT22;10193;48.884;9.182;2022-09-09T12:19:05;22.50;55.90
20066;DHT22;10193;48.884;9.182;2022-09-09T12:21:35;22.60;56.00
20066;DHT22;10193;48.884;9.182;2022-09-09T12:24:08;22.80;56.30
20066;DHT22;10193;48.884;9.182;2022-09-09T12:26:40;22.90;56.30
20066;DHT22;10193;48.884;9.182;2022-09-09T12:29:16;23.00;56.40
20066;DHT22;10193;48.884;9.182;2022-09-09T12:31:53;23.10;56.10
20066;DHT22;10193;48.884;9.182;2022-09-09T12:34:30;23.30;56.10
20066;DHT22;10193;48.884;9.182;2022-09-09T12:37:04;23.40;55.70
20066;DHT22;10193;48.884;9.182;2022-09-09T12:39:35;23.50;56.10
20066;DHT22;10193;48.884;9.182;2022-09-09T12:42:14;23.60;55.40
20066;DHT22;10193;48.884;9.182;2022-09-09T12:44:51;23.70;55.10
20066;DHT22;10193;48.884;9.182;2022-09-09T12:47:19;23.70;54.40
20066;DHT22;10193;48.884;9.182;2022-09-09T12:49:47;23.80;54.50
20066;DHT22;10193;48.884;9.182;2022-09-09T12:52:19;23.90;54.40
20066;DHT22;10193;48.884;9.182;2022-09-09T12:54:49;23.90;53.90
20066;DHT22;10193;48.884;9.182;2022-09-09T12:57:23;23.90;53.60
20066;DHT22;10193;48.884;9.182;2022-09-09T12:59:51;23.90;53.50
20066;DHT22;10193;48.884;9.182;2022-09-09T13:02:20;23.90;53.70
20066;DHT22;10193;48.884;9.182;2022-09-09T13:04:48;23.90;53.70
20066;DHT22;10193;48.884;9.182;2022-09-09T13:07:17;23.90;53.70
20066;DHT22;10193;48.884;9.182;2022-09-09T13:09:45;23.90;53.60
20066;DHT22;10193;48.884;9.182;2022-09-09T13:12:15;24.00;53.80
20066;DHT22;10193;48.884;9.182;2022-09-09T13:14:47;24.00;53.60
20066;DHT22;10193;48.884;9.182;2022-09-09T13:17:20;24.00;53.40
20066;DHT22;10193;48.884;9.182;2022-09-09T13:19:47;24.10;53.30
20066;DHT22;10193;48.884;9.182;2022-09-09T13:22:21;24.20;53.50
20066;DHT22;10193;48.884;9.182;2022-09-09T13:25:03;24.20;53.60
20066;DHT22;10193;48.884;9.182;2022-09-09T13:27:32;24.30;53.70
20066;DHT22;10193;48.884;9.182;2022-09-09T13:30:01;24.40;53.90
20066;DHT22;10193;48.884;9.182;2022-09-09T13:32:28;24.50;53.90
20066;DHT22;10193;48.884;9.182;2022-09-09T13:34:58;24.60;53.90
20066;DHT22;10193;48.884;9.182;2022-09-09T13:37:30;24.70;53.60
20066;DHT22;10193;48.884;9.182;2022-09-09T13:39:58;24.90;53.30
20066;DHT22;10193;48.884;9.182;2022-09-09T13:42:26;25.00;53.30
20066;DHT22;10193;48.884;9.182;2022-09-09T13:44:55;25.00;52.90
20066;DHT22;10193;48.884;9.182;2022-09-09T13:47:28;25.20;52.70
20066;DHT22;10193;48.884;9.182;2022-09-09T13:49:56;25.20;52.10
20066;DHT22;10193;48.884;9.182;2022-09-09T13:52:23;25.40;52.20
20066;DHT22;10193;48.884;9.182;2022-09-09T13:54:52;25.40;51.90
20066;DHT22;10193;48.884;9.182;2022-09-09T13:57:21;25.50;51.60
20066;DHT22;10193;48.884;9.182;2022-09-09T13:59:49;25.60;51.40
20066;DHT22;10193;48.884;9.182;2022-09-09T14:02:16;25.60;51.40
20066;DHT22;10193;48.884;9.182;2022-09-09T14:04:44;25.70;51.40
20066;DHT22;10193;48.884;9.182;2022-09-09T14:07:12;25.70;51.30
20066;DHT22;10193;48.884;9.182;2022-09-09T14:09:40;25.70;51.30
20066;DHT22;10193;48.884;9.182;2022-09-09T14:12:09;25.90;51.10
20066;DHT22;10193;48.884;9.182;2022-09-09T14:14:37;25.90;50.80
20066;DHT22;10193;48.884;9.182;2022-09-09T14:17:04;26.00;50.60
20066;DHT22;10193;48.884;9.182;2022-09-09T14:19:30;26.00;50.20
20066;DHT22;10193;48.884;9.182;2022-09-09T14:21:58;26.10;50.00
20066;DHT22;10193;48.884;9.182;2022-09-09T14:24:26;26.00;49.70
20066;DHT22;10193;48.884;9.182;2022-09-09T14:26:53;26.10;49.70
20066;DHT22;10193;48.884;9.182;2022-09-09T14:29:20;26.10;49.60
20066;DHT22;10193;48.884;9.182;2022-09-09T14:31:47;26.10;49.60
20066;DHT22;10193;48.884;9.182;2022-09-09T14:34:13;26.10;49.60
20066;DHT22;10193;48.884;9.182;2022-09-09T14:36:40;26.20;49.50
20066;DHT22;10193;48.884;9.182;2022-09-09T14:39:08;26.20;49.20
20066;DHT22;10193;48.884;9.182;2022-09-09T14:41:35;26.30;48.90
20066;DHT22;10193;48.884;9.182;2022-09-09T14:44:02;26.20;48.70
20066;DHT22;10193;48.884;9.182;2022-09-09T14:46:29;26.20;48.60
20066;DHT22;10193;48.884;9.182;2022-09-09T14:48:56;26.20;48.40
20066;DHT22;10193;48.884;9.182;2022-09-09T14:51:24;26.20;48.50
20066;DHT22;10193;48.884;9.182;2022-09-09T14:53:54;26.10;48.10
20066;DHT22;10193;48.884;9.182;2022-09-09T14:56:23;26.10;47.90
20066;DHT22;10193;48.884;9.182;2022-09-09T14:58:53;26.00;47.70
20066;DHT22;10193;48.884;9.182;2022-09-09T15:01:21;26.00;47.80
20066;DHT22;10193;48.884;9.182;2022-09-09T15:03:52;25.90;47.80
20066;DHT22;10193;48.884;9.182;2022-09-09T15:06:20;25.90;47.70
20066;DHT22;10193;48.884;9.182;2022-09-09T15:08:47;25.80;47.80
20066;DHT22;10193;48.884;9.182;2022-09-09T15:11:14;25.80;47.70
20066;DHT22;10193;48.884;9.182;2022-09-09T15:13:43;25.70;47.40
20066;DHT22;10193;48.884;9.182;2022-09-09T15:16:12;25.60;47.20
20066;DHT22;10193;48.884;9.182;2022-09-09T15:18:39;25.60;47.10
20066;DHT22;10193;48.884;9.182;2022-09-09T15:21:08;25.50;47.00
20066;DHT22;10193;48.884;9.182;2022-09-09T15:23:36;25.50;46.60
20066;DHT22;10193;48.884;9.182;2022-09-09T15:26:03;25.40;46.50
20066;DHT22;10193;48.884;9.182;2022-09-09T15:28:31;25.30;46.60
20066;DHT22;10193;48.884;9.182;2022-09-09T15:30:59;25.20;46.30
20066;DHT22;10193;48.884;9.182;2022-09-09T15:33:31;25.10;46.40
20066;DHT22;10193;48.884;9.182;2022-09-09T15:35:58;25.00;46.20
20066;DHT22;10193;48.884;9.182;2022-09-09T15:38:25;25.00;46.20
20066;DHT22;10193;48.884;9.182;2022-09-09T15:40:53;24.90;45.90
20066;DHT22;10193;48.884;9.182;2022-09-09T15:43:20;24.80;45.80
20066;DHT22;10193;48.884;9.182;2022-09-09T15:45:51;24.80;46.10
20066;DHT22;10193;48.884;9.182;2022-09-09T15:48:29;24.70;46.10
20066;DHT22;10193;48.884;9.182;2022-09-09T15:51:01;24.70;46.00